Time;durP1;ratioP1;P1;durP2;ratioP2;P2;SDS_P1;SDS_P2;PMS_P1;PMS_P2;Temp;Humidity;BMP_temperature;BMP_pressure;BME280_temperature;BME280_humidity;BME280_pressure;Samples;Min_cycle;Max_cycle;Signal;HPM_P1;HPM_P2
2021/11/20 00:02:30;;;;;;;;;;;;;;;6.59;100.00;95283.56;10403009;28;19928;-75
2021/11/20 00:07:30;;;;;;;;;;;;;;;6.74;100.00;95269.72;10417911;28;19920;-75
2021/11/20 00:12:31;;;;;;;;;;;;;;;6.64;100.00;95278.31;10418236;28;20348;-74
2021/11/20 00:17:32;;;;;;;;;;;;;;;6.70;100.00;95271.22;10417654;28;20375;-74
2021/11/20 00:22:35;;;;;;;;;;;;;;;6.55;100.00;95280.53;10401215;28;19917;-74
2021/11/20 00:27:37;;;;;;;;;;;;;;;6.59;100.00;95273.69;10417796;28;19924;-71
2021/11/20 00:32:39;;;;;;;;;;;;;;;6.57;100.00;95273.13;10402007;28;19917;-75
2021/11/20 00:37:40;;;;;;;;;;;;;;;6.43;100.00;95272.56;10417375;28;20389;-77
2021/11/20 00:42:40;;;;;;;;;;;;;;;6.60;100.00;95280.66;10401635;28;19917;-72
2021/11/20 00:47:40;;;;;;;;;;;;;;;6.50;100.00;95285.75;10417237;28;19913;-74
2021/11/20 00:52:41;;;;;;;;;;;;;;;6.42;100.00;95276.25;10417905;28;19921;-75
2021/11/20 00:57:42;;;;;;;;;;;;;;;6.55;100.00;95269.06;10416419;28;20013;-73
2021/11/20 01:02:43;;;;;;;;;;;;;;;6.63;100.00;95268.72;10416677;28;19922;-71
2021/11/20 01:07:44;;;;;;;;;;;;;;;6.52;100.00;95266.84;10401287;28;20237;-73
2021/11/20 01:12:44;;;;;;;;;;;;;;;6.64;100.00;95260.44;10416552;28;19917;-72
2021/11/20 01:17:45;;;;;;;;;;;;;;;6.69;100.00;95256.28;10416058;28;19913;-72
2021/11/20 01:22:45;;;;;;;;;;;;;;;6.68;100.00;95258.09;10416071;28;20369;-73
2021/11/20 01:27:45;;;;;;;;;;;;;;;6.64;100.00;95255.09;10407680;28;19989;-73
2021/11/20 01:32:46;;;;;;;;;;;;;;;6.35;100.00;95250.72;10423904;28;19920;-74
2021/11/20 01:37:47;;;;;;;;;;;;;;;6.54;100.00;95254.88;10417299;28;19924;-71
2021/11/20 01:42:47;;;;;;;;;;;;;;;6.58;100.00;95266.72;10413770;28;20307;-74
2021/11/20 01:48:03;;;;;;;;;;;;;;;6.67;100.00;95270.66;10408297;28;20654;-74
2021/11/20 01:53:13;;;;;;;;;;;;;;;6.67;100.00;95265.31;10406523;28;19928;-73
2021/11/20 01:58:19;;;;;;;;;;;;;;;6.66;100.00;95265.56;10406711;28;19929;-72
2021/11/20 02:03:23;;;;;;;;;;;;;;;6.67;100.00;95241.28;10406788;28;19917;-72
2021/11/20 02:08:24;;;;;;;;;;;;;;;6.75;100.00;95242.75;10406343;28;20398;-74
2021/11/20 02:13:26;;;;;;;;;;;;;;;6.81;100.00;95238.34;10406044;28;19920;-73
2021/11/20 02:18:29;;;;;;;;;;;;;;;6.88;100.00;95238.19;10406531;28;19967;-73
2021/11/20 02:23:29;;;;;;;;;;;;;;;7.01;100.00;95225.38;10406081;28;19925;-74
2021/11/20 02:28:31;;;;;;;;;;;;;;;6.97;100.00;95236.78;10405547;28;19970;-76
2021/11/20 02:33:35;;;;;;;;;;;;;;;6.83;100.00;95230.91;10405591;28;20032;-73
2021/11/20 02:38:36;;;;;;;;;;;;;;;7.00;100.00;95218.44;10403719;28;19913;-73
2021/11/20 02:43:37;;;;;;;;;;;;;;;7.06;100.00;95213.97;10405201;28;19917;-75
2021/11/20 02:48:38;;;;;;;;;;;;;;;7.13;100.00;95211.16;10405015;28;20406;-74
2021/11/20 02:53:43;;;;;;;;;;;;;;;7.05;100.00;95212.34;10404955;28;19917;-73
2021/11/20 02:58:43;;;;;;;;;;;;;;;7.12;100.00;95206.88;10404728;28;19924;-75
2021/11/20 03:03:44;;;;;;;;;;;;;;;6.96;100.00;95198.56;10403535;28;19921;-74
2021/11/20 03:08:44;;;;;;;;;;;;;;;7.13;100.00;95205.81;10404254;28;20003;-74
2021/11/20 03:13:48;;;;;;;;;;;;;;;7.19;100.00;95202.19;10404618;28;20306;-79
2021/11/20 03:18:48;;;;;;;;;;;;;;;7.22;100.00;95201.69;10403232;28;19921;-74
2021/11/20 03:23:50;;;;;;;;;;;;;;;7.25;100.00;95200.41;10403363;28;19932;-75
2021/11/20 03:28:50;;;;;;;;;;;;;;;7.12;100.00;95198.84;10404108;28;19913;-74
2021/11/20 03:33:51;;;;;;;;;;;;;;;7.18;100.00;95198.69;10403139;28;19917;-73
2021/11/20 03:38:51;;;;;;;;;;;;;;;7.13;100.00;95195.09;10386714;28;20020;-72
2021/11/20 03:43:51;;;;;;;;;;;;;;;7.11;100.00;95205.25;10403402;28;20436;-74
2021/11/20 03:48:52;;;;;;;;;;;;;;;7.07;100.00;95212.13;10385991;28;19920;-75
2021/11/20 03:53:52;;;;;;;;;;;;;;;7.03;100.00;95211.75;10403051;28;19936;-76
2021/11/20 03:58:53;;;;;;;;;;;;;;;7.03;100.00;95218.97;10402398;28;19967;-74
2021/11/20 04:03:53;;;;;;;;;;;;;;;7.19;100.00;95202.19;10403370;28;19975;-75
2021/11/20 04:08:54;;;;;;;;;;;;;;;7.12;100.00;95215.69;10401979;28;20501;-76
2021/11/20 04:13:55;;;;;;;;;;;;;;;7.27;100.00;95225.03;10401667;28;20298;-73
2021/11/20 04:18:55;;;;;;;;;;;;;;;7.35;100.00;95221.97;10401589;28;20354;-73
2021/11/20 04:23:56;;;;;;;;;;;;;;;7.37;100.00;95225.22;10402407;28;19924;-75
2021/11/20 04:28:57;;;;;;;;;;;;;;;7.36;100.00;95229.75;10401137;28;19914;-76
2021/11/20 04:33:57;;;;;;;;;;;;;;;7.35;100.00;95232.66;10401051;28;20404;-73
2021/11/20 04:38:58;;;;;;;;;;;;;;;7.44;100.00;95230.44;10400916;28;19924;-72
2021/11/20 04:43:59;;;;;;;;;;;;;;;7.33;100.00;95218.75;10400597;28;20386;-72
2021/11/20 04:48:59;;;;;;;;;;;;;;;7.37;100.00;95211.84;10400697;28;19936;-73
2021/11/20 04:54:00;;;;;;;;;;;;;;;7.56;100.00;95201.72;10401406;28;20688;-73
2021/11/20 04:59:00;;;;;;;;;;;;;;;7.64;100.00;95201.34;10402361;28;19921;-76
2021/11/20 05:04:01;;;;;;;;;;;;;;;7.49;100.00;95193.06;10408181;28;19917;-75
2021/11/20 05:09:02;;;;;;;;;;;;;;;7.48;100.00;95188.75;10408388;28;20345;-72
2021/11/20 05:14:02;;;;;;;;;;;;;;;7.49;100.00;95191.22;10391289;28;19913;-75
2021/11/20 05:19:02;;;;;;;;;;;;;;;7.57;100.00;95168.59;10409420;28;19983;-76
2021/11/20 05:24:03;;;;;;;;;;;;;;;7.58;100.00;95172.88;10406989;28;19921;-71
2021/11/20 05:29:10;;;;;;;;;;;;;;;7.59;100.00;95171.00;10408783;28;19913;-74
2021/11/20 05:34:10;;;;;;;;;;;;;;;7.62;100.00;95178.56;10407455;28;20484;-71
2021/11/20 05:39:11;;;;;;;;;;;;;;;7.59;100.00;95184.38;10406880;28;19924;-72
2021/11/20 05:44:12;;;;;;;;;;;;;;;7.29;100.00;95182.84;10406997;28;19979;-71
2021/11/20 05:49:12;;;;;;;;;;;;;;;7.56;100.00;95195.56;10407007;28;19920;-72
2021/11/20 05:54:13;;;;;;;;;;;;;;;7.59;100.00;95217.31;10406324;28;19928;-76
2021/11/20 05:59:13;;;;;;;;;;;;;;;7.62;100.00;95222.19;10407863;28;19924;-79
2021/11/20 06:04:14;;;;;;;;;;;;;;;7.66;100.00;95212.63;10405513;28;19917;-72
2021/11/20 06:09:14;;;;;;;;;;;;;;;7.33;100.00;95200.81;10395997;28;19924;-73
2021/11/20 06:14:15;;;;;;;;;;;;;;;7.19;100.00;95188.81;10380944;28;19996;-79
2021/11/20 06:19:15;;;;;;;;;;;;;;;7.29;100.00;95202.34;10365925;28;20322;-75
2021/11/20 06:24:16;;;;;;;;;;;;;;;7.48;100.00;95186.09;10380268;28;20403;-75
2021/11/20 06:29:17;;;;;;;;;;;;;;;7.56;100.00;95200.94;10380189;28;19957;-73
2021/11/20 06:34:18;;;;;;;;;;;;;;;7.71;100.00;95198.50;10380583;28;19914;-74
2021/11/20 06:39:18;;;;;;;;;;;;;;;7.78;100.00;95211.72;10385168;28;20341;-74
2021/11/20 06:44:19;;;;;;;;;;;;;;;7.69;100.00;95225.50;10404192;28;19924;-78
2021/11/20 06:49:19;;;;;;;;;;;;;;;7.84;100.00;95221.44;10386880;28;19974;-76
2021/11/20 06:54:19;;;;;;;;;;;;;;;7.96;100.00;95216.00;10413922;28;19924;-81
2021/11/20 07:04:25;;;;;;;;;;;;;;;8.11;100.00;95226.16;10400877;28;20008;-77
2021/11/20 07:09:25;;;;;;;;;;;;;;;8.10;100.00;95216.50;10402710;28;20458;-77
2021/11/20 07:14:26;;;;;;;;;;;;;;;8.25;100.00;95206.00;10400687;28;19923;-76
2021/11/20 07:19:26;;;;;;;;;;;;;;;8.22;100.00;95203.81;10395203;28;19925;-73
2021/11/20 07:24:26;;;;;;;;;;;;;;;8.43;100.00;95196.88;10407323;28;19924;-74
2021/11/20 07:29:27;;;;;;;;;;;;;;;8.65;100.00;95204.13;10415123;28;19920;-79
2021/11/20 07:34:27;;;;;;;;;;;;;;;8.71;100.00;95206.63;10413918;28;19921;-78
2021/11/20 07:39:28;;;;;;;;;;;;;;;8.72;100.00;95216.28;10415034;28;20036;-81
2021/11/20 07:44:29;;;;;;;;;;;;;;;8.83;100.00;95216.41;10399386;28;20444;-75
2021/11/20 07:49:29;;;;;;;;;;;;;;;8.79;100.00;95212.59;10401153;28;19913;-81
2021/11/20 07:54:29;;;;;;;;;;;;;;;9.05;100.00;95227.91;10401647;28;19929;-80
2021/11/20 07:59:30;;;;;;;;;;;;;;;8.98;100.00;95218.47;10401082;28;20471;-79
2021/11/20 08:04:30;;;;;;;;;;;;;;;8.52;100.00;95214.16;10402039;28;20306;-77
2021/11/20 08:09:30;;;;;;;;;;;;;;;8.28;100.00;95213.53;10401462;28;19995;-75
2021/11/20 08:14:31;;;;;;;;;;;;;;;8.48;100.00;95206.84;10398363;28;20290;-75
2021/11/20 08:19:33;;;;;;;;;;;;;;;8.78;100.00;95227.88;10416062;28;20378;-76
2021/11/20 08:24:33;;;;;;;;;;;;;;;9.03;100.00;95218.53;10402207;28;19921;-79
2021/11/20 08:29:37;;;;;;;;;;;;;;;9.18;100.00;95215.19;10415627;28;19924;-78
2021/11/20 08:34:42;;;;;;;;;;;;;;;10.45;100.00;95200.38;10417234;28;20349;-79
2021/11/20 08:39:42;;;;;;;;;;;;;;;11.14;100.00;95201.19;10398608;28;19925;-74
2021/11/20 08:44:43;;;;;;;;;;;;;;;12.40;100.00;95199.91;10399153;28;19917;-80
2021/11/20 08:49:43;;;;;;;;;;;;;;;13.84;87.74;95201.97;10415073;28;19971;-77
2021/11/20 08:54:43;;;;;;;;;;;;;;;14.94;78.09;95199.81;10415457;28;19925;-77
2021/11/20 08:59:44;;;;;;;;;;;;;;;14.69;73.28;95193.59;10398470;28;19921;-76
2021/11/20 09:04:55;;;;;;;;;;;;;;;13.20;84.78;95179.41;10414898;28;19964;-78
2021/11/20 09:10:01;;;;;;;;;;;;;;;13.93;86.62;95187.84;10391832;28;20007;-77
2021/11/20 09:15:05;;;;;;;;;;;;;;;14.58;80.55;95183.97;10387437;28;19917;-76
2021/11/20 09:20:06;;;;;;;;;;;;;;;13.93;81.46;95193.25;10400199;28;19914;-78
2021/11/20 09:25:07;;;;;;;;;;;;;;;13.55;88.29;95184.88;10399377;28;19923;-75
2021/11/20 09:30:08;;;;;;;;;;;;;;;12.78;97.36;95177.97;10400217;28;19933;-76
2021/11/20 09:35:08;;;;;;;;;;;;;;;13.78;92.58;95177.97;10398328;28;19920;-75
2021/11/20 09:40:09;;;;;;;;;;;;;;;12.58;95.94;95181.53;10374326;28;19925;-76
2021/11/20 09:45:30;;;;;;;;;;;;;;;12.60;100.00;95171.28;10357052;28;20406;-76
2021/11/20 09:50:33;;;;;;;;;;;;;;;12.23;100.00;95178.66;10364127;28;19975;-72
2021/11/20 09:55:35;;;;;;;;;;;;;;;11.86;100.00;95168.16;10363623;28;19944;-80
2021/11/20 10:00:38;;;;;;;;;;;;;;;11.76;100.00;95160.91;10384569;28;19921;-78
2021/11/20 10:05:43;;;;;;;;;;;;;;;11.69;100.00;95158.47;10406682;28;19920;-73
2021/11/20 10:11:04;;;;;;;;;;;;;;;11.74;100.00;95155.78;10408517;28;20302;-76
2021/11/20 10:16:18;;;;;;;;;;;;;;;11.90;100.00;95147.69;10398641;28;19917;-77
2021/11/20 10:21:33;;;;;;;;;;;;;;;11.99;100.00;95146.09;10399274;28;19959;-76
2021/11/20 10:27:01;;;;;;;;;;;;;;;11.90;100.00;95137.75;10419634;28;19924;-73
2021/11/20 10:32:31;;;;;;;;;;;;;;;12.02;100.00;95134.00;10403538;28;19951;-75
2021/11/20 10:37:34;;;;;;;;;;;;;;;12.08;100.00;95136.41;10399422;28;20459;-75
2021/11/20 10:42:36;;;;;;;;;;;;;;;11.90;100.00;95136.91;10419968;28;19971;-78
2021/11/20 10:47:42;;;;;;;;;;;;;;;11.33;100.00;95136.94;10403406;28;20303;-76
2021/11/20 10:52:51;;;;;;;;;;;;;;;11.71;100.00;95113.25;10407158;28;19913;-73
2021/11/20 10:58:13;;;;;;;;;;;;;;;12.12;100.00;95117.78;10368196;28;19925;-82
2021/11/20 11:03:20;;;;;;;;;;;;;;;12.42;100.00;95116.91;10387945;28;19944;-78
2021/11/20 11:08:23;;;;;;;;;;;;;;;13.11;100.00;95105.50;10419008;28;19913;-75
2021/11/20 11:13:49;;;;;;;;;;;;;;;13.10;100.00;95110.09;10415501;28;19921;-75
2021/11/20 11:18:52;;;;;;;;;;;;;;;13.40;100.00;95113.69;10371474;28;19917;-77
2021/11/20 11:24:10;;;;;;;;;;;;;;;13.82;99.14;95098.75;10401870;28;20020;-73
2021/11/20 11:29:22;;;;;;;;;;;;;;;15.54;90.60;95093.66;10417953;28;20571;-73
2021/11/20 11:34:26;;;;;;;;;;;;;;;16.62;74.43;95090.91;10403834;28;20186;-79
2021/11/20 11:39:32;;;;;;;;;;;;;;;15.76;75.47;95090.31;10398245;28;19917;-78
2021/11/20 11:44:42;;;;;;;;;;;;;;;14.44;86.27;95103.53;10401598;28;19928;-78
2021/11/20 11:49:48;;;;;;;;;;;;;;;13.93;93.94;95102.16;10401632;28;19913;-77
2021/11/20 11:55:01;;;;;;;;;;;;;;;13.44;96.24;95106.66;10399700;28;19987;-78
2021/11/20 12:00:14;;;;;;;;;;;;;;;12.15;100.00;95109.16;10400267;28;19944;-82
2021/11/20 12:05:33;;;;;;;;;;;;;;;11.95;100.00;95096.56;10398531;28;20000;-74
2021/11/20 12:10:47;;;;;;;;;;;;;;;12.02;100.00;95094.38;10398740;28;20098;-77
2021/11/20 12:16:00;;;;;;;;;;;;;;;12.21;100.00;95099.16;10399343;28;19919;-82
2021/11/20 12:21:05;;;;;;;;;;;;;;;12.26;100.00;95099.16;10399631;28;19920;-75
2021/11/20 12:26:24;;;;;;;;;;;;;;;12.39;100.00;95095.91;10399913;28;20008;-76
2021/11/20 12:31:28;;;;;;;;;;;;;;;12.43;100.00;95086.19;10399549;28;20004;-78
2021/11/20 12:36:39;;;;;;;;;;;;;;;12.44;100.00;95082.38;10400679;28;20341;-76
2021/11/20 12:41:50;;;;;;;;;;;;;;;12.19;100.00;95075.19;10399801;28;20311;-75
2021/11/20 12:47:06;;;;;;;;;;;;;;;11.80;100.00;95073.94;10395178;28;19927;-75
2021/11/20 12:52:18;;;;;;;;;;;;;;;11.60;100.00;95063.19;10399237;28;19917;-73
2021/11/20 12:57:27;;;;;;;;;;;;;;;11.34;100.00;95052.44;10400327;28;19921;-75
2021/11/20 13:02:47;;;;;;;;;;;;;;;11.01;100.00;95046.53;10398631;28;19956;-79
2021/11/20 13:07:51;;;;;;;;;;;;;;;11.19;100.00;95041.69;10399656;28;20434;-77
2021/11/20 13:12:58;;;;;;;;;;;;;;;11.31;100.00;95044.91;10397320;28;19920;-76
2021/11/20 13:17:58;;;;;;;;;;;;;;;11.39;100.00;95046.25;10397495;28;19962;-76
2021/11/20 13:23:08;;;;;;;;;;;;;;;11.16;100.00;95036.84;10405672;28;19928;-74
2021/11/20 13:28:08;;;;;;;;;;;;;;;10.45;100.00;95046.41;10406151;28;20374;-78
2021/11/20 13:33:09;;;;;;;;;;;;;;;10.52;100.00;95049.66;10407184;28;19924;-75
2021/11/20 13:38:11;;;;;;;;;;;;;;;10.62;100.00;95047.00;10409312;28;19913;-74
2021/11/20 13:43:18;;;;;;;;;;;;;;;10.55;100.00;95038.41;10406274;28;19929;-77
2021/11/20 13:48:24;;;;;;;;;;;;;;;10.36;100.00;95032.69;10420390;28;20447;-78
2021/11/20 13:53:32;;;;;;;;;;;;;;;10.33;100.00;95044.75;10407338;28;19917;-74
2021/11/20 13:58:34;;;;;;;;;;;;;;;10.26;100.00;95044.97;10422290;28;19940;-76
2021/11/20 14:03:34;;;;;;;;;;;;;;;10.22;100.00;95051.16;10421835;28;19917;-74
2021/11/20 14:08:39;;;;;;;;;;;;;;;10.21;100.00;95034.22;10404456;28;19920;-75
2021/11/20 14:13:40;;;;;;;;;;;;;;;9.89;100.00;95037.03;10411482;28;19918;-74
2021/11/20 14:18:48;;;;;;;;;;;;;;;9.79;100.00;95034.31;10405943;28;19928;-77
2021/11/20 14:24:03;;;;;;;;;;;;;;;9.79;100.00;95028.94;10404707;28;20421;-75
2021/11/20 14:29:04;;;;;;;;;;;;;;;9.70;100.00;95026.75;10405013;28;19999;-76
2021/11/20 14:34:04;;;;;;;;;;;;;;;9.52;100.00;95021.81;10420547;28;19921;-75
2021/11/20 14:39:07;;;;;;;;;;;;;;;9.49;100.00;95011.56;10405374;28;19920;-75
2021/11/20 14:44:08;;;;;;;;;;;;;;;9.30;100.00;95020.06;10404761;28;19928;-75
2021/11/20 14:49:10;;;;;;;;;;;;;;;9.26;100.00;95018.16;10387832;28;19917;-75
2021/11/20 14:54:12;;;;;;;;;;;;;;;9.20;100.00;95026.16;10405178;28;20461;-75
2021/11/20 14:59:13;;;;;;;;;;;;;;;9.13;100.00;95017.53;10385978;28;19927;-74
2021/11/20 15:04:13;;;;;;;;;;;;;;;8.79;100.00;95023.16;10421172;28;19917;-77
2021/11/20 15:09:14;;;;;;;;;;;;;;;8.89;100.00;95038.50;10424815;28;19917;-78
2021/11/20 15:14:15;;;;;;;;;;;;;;;8.81;100.00;95045.13;10403376;28;20016;-75
2021/11/20 15:19:18;;;;;;;;;;;;;;;8.83;100.00;95051.06;10404654;28;19913;-75
2021/11/20 15:24:22;;;;;;;;;;;;;;;8.80;100.00;95056.09;10417491;28;20040;-77
2021/11/20 15:29:23;;;;;;;;;;;;;;;8.78;100.00;95053.69;10403733;28;19920;-76
2021/11/20 15:34:24;;;;;;;;;;;;;;;8.66;100.00;95045.00;10410237;28;19920;-76
2021/11/20 15:39:24;;;;;;;;;;;;;;;8.57;100.00;95049.16;10401982;28;19983;-74
2021/11/20 15:44:24;;;;;;;;;;;;;;;8.49;100.00;95053.13;10401866;28;20024;-74
2021/11/20 15:49:27;;;;;;;;;;;;;;;8.52;100.00;95068.69;10400736;28;20013;-76
2021/11/20 15:54:28;;;;;;;;;;;;;;;8.47;100.00;95061.41;10399976;28;20410;-73
2021/11/20 15:59:28;;;;;;;;;;;;;;;8.46;100.00;95064.34;10400237;28;20016;-76
2021/11/20 16:04:28;;;;;;;;;;;;;;;8.44;100.00;95059.22;10399064;28;19987;-75
2021/11/20 16:09:29;;;;;;;;;;;;;;;8.35;100.00;95066.88;10399173;28;19921;-74
2021/11/20 16:14:30;;;;;;;;;;;;;;;8.36;100.00;95068.50;10399090;28;20633;-75
2021/11/20 16:19:30;;;;;;;;;;;;;;;8.19;100.00;95054.34;10399433;28;19979;-78
2021/11/20 16:24:30;;;;;;;;;;;;;;;8.27;100.00;95061.94;10416259;28;20015;-76
2021/11/20 16:29:30;;;;;;;;;;;;;;;8.28;100.00;95068.94;10414993;28;20280;-76
2021/11/20 16:34:31;;;;;;;;;;;;;;;8.20;100.00;95075.56;10399191;28;19913;-74
2021/11/20 16:39:31;;;;;;;;;;;;;;;8.23;100.00;95070.75;10415624;28;20362;-75
2021/11/20 16:44:32;;;;;;;;;;;;;;;8.04;100.00;95077.22;10414810;28;19917;-76
2021/11/20 16:49:32;;;;;;;;;;;;;;;7.84;100.00;95068.91;10374601;28;19921;-81
2021/11/20 16:54:35;;;;;;;;;;;;;;;7.73;100.00;95065.31;10360093;28;20529;-78
2021/11/20 17:04:45;;;;;;;;;;;;;;;7.45;100.00;95076.94;10499597;22;20700;-74
2021/11/20 17:09:45;;;;;;;;;;;;;;;7.40;100.00;95076.88;10407602;28;20031;-73
2021/11/20 17:14:46;;;;;;;;;;;;;;;7.33;100.00;95074.34;10417390;28;20093;-73
2021/11/20 17:19:46;;;;;;;;;;;;;;;7.39;100.00;95083.25;10449172;28;19916;-74
2021/11/20 17:24:46;;;;;;;;;;;;;;;7.32;100.00;95086.91;10430695;28;19920;-73
2021/11/20 17:29:47;;;;;;;;;;;;;;;7.34;100.00;95065.28;10431007;28;19912;-75
2021/11/20 17:34:47;;;;;;;;;;;;;;;7.28;100.00;95068.91;10430406;28;19963;-73
2021/11/20 17:39:47;;;;;;;;;;;;;;;7.48;100.00;95065.72;10446786;28;19917;-75
2021/11/20 17:44:47;;;;;;;;;;;;;;;7.58;100.00;95073.94;10447886;28;19974;-78
2021/11/20 17:49:48;;;;;;;;;;;;;;;7.37;100.00;95072.81;10448287;28;19917;-77
2021/11/20 17:54:48;;;;;;;;;;;;;;;7.46;100.00;95078.56;10430692;28;19917;-74
2021/11/20 17:59:50;;;;;;;;;;;;;;;7.33;100.00;95072.47;10429985;28;20386;-79
2021/11/20 18:04:51;;;;;;;;;;;;;;;7.24;100.00;95076.63;10404215;28;20383;-75
2021/11/20 18:09:54;;;;;;;;;;;;;;;7.17;100.00;95059.94;10407121;28;20011;-77
2021/11/20 18:14:54;;;;;;;;;;;;;;;7.19;100.00;95071.19;10404810;28;19924;-75
2021/11/20 18:19:56;;;;;;;;;;;;;;;7.13;100.00;95056.94;10420518;28;19935;-74
2021/11/20 18:24:56;;;;;;;;;;;;;;;7.17;100.00;95060.75;10402940;28;19971;-72
2021/11/20 18:29:57;;;;;;;;;;;;;;;7.14;100.00;95066.56;10420967;28;20008;-75
2021/11/20 18:34:57;;;;;;;;;;;;;;;7.22;100.00;95073.38;10404172;28;19917;-75
2021/11/20 18:39:57;;;;;;;;;;;;;;;7.17;100.00;95075.97;10402658;28;19923;-72
2021/11/20 18:44:58;;;;;;;;;;;;;;;7.18;100.00;95077.59;10420276;28;19917;-74
2021/11/20 18:49:58;;;;;;;;;;;;;;;7.17;100.00;95076.78;10420796;28;20379;-76
2021/11/20 18:54:58;;;;;;;;;;;;;;;7.19;100.00;95076.56;10404677;28;20346;-76
2021/11/20 18:59:59;;;;;;;;;;;;;;;7.18;100.00;95062.34;10403132;28;19948;-74
2021/11/20 19:04:59;;;;;;;;;;;;;;;7.07;100.00;95060.56;10427068;28;20003;-75
2021/11/20 19:10:01;;;;;;;;;;;;;;;7.03;100.00;95066.66;10444922;28;19920;-78
2021/11/20 19:15:07;;;;;;;;;;;;;;;7.16;100.00;95071.69;10415204;28;19920;-77
2021/11/20 19:20:09;;;;;;;;;;;;;;;7.20;100.00;95070.16;10442537;28;19925;-78
2021/11/20 19:25:10;;;;;;;;;;;;;;;7.17;100.00;95075.97;10443358;28;20365;-74
2021/11/20 19:30:11;;;;;;;;;;;;;;;7.18;100.00;95082.94;10443611;28;19913;-76
2021/11/20 19:35:13;;;;;;;;;;;;;;;7.19;100.00;95093.38;10443620;28;19923;-76
2021/11/20 19:40:16;;;;;;;;;;;;;;;7.18;100.00;95090.97;10443064;28;19920;-73
2021/11/20 19:45:16;;;;;;;;;;;;;;;7.32;100.00;95094.91;10442911;28;19923;-76
2021/11/20 19:50:17;;;;;;;;;;;;;;;7.11;100.00;95096.47;10442399;28;20258;-76
2021/11/20 19:55:17;;;;;;;;;;;;;;;7.28;100.00;95088.44;10442126;28;19919;-77
2021/11/20 20:00:19;;;;;;;;;;;;;;;7.30;100.00;95091.69;10442049;28;20387;-73
2021/11/20 20:05:20;;;;;;;;;;;;;;;7.28;100.00;95104.47;10443047;28;19920;-75
2021/11/20 20:10:23;;;;;;;;;;;;;;;7.35;100.00;95099.81;10443350;28;20301;-74
2021/11/20 20:15:25;;;;;;;;;;;;;;;7.26;100.00;95092.44;10424605;28;21345;-75
2021/11/20 20:20:26;;;;;;;;;;;;;;;7.28;100.00;95087.63;10441327;28;20261;-75
2021/11/20 20:25:27;;;;;;;;;;;;;;;7.23;100.00;95096.41;10440744;28;20355;-77
2021/11/20 20:30:27;;;;;;;;;;;;;;;7.21;100.00;95082.44;10424886;28;19913;-75
2021/11/20 20:35:27;;;;;;;;;;;;;;;7.09;100.00;95084.38;10437488;28;19920;-74
2021/11/20 20:40:28;;;;;;;;;;;;;;;7.03;100.00;95086.16;10441083;28;19913;-76
2021/11/20 20:45:28;;;;;;;;;;;;;;;7.15;100.00;95096.78;10423616;28;19917;-76
2021/11/20 20:50:29;;;;;;;;;;;;;;;7.07;100.00;95087.31;10424543;28;19917;-75
2021/11/20 20:55:29;;;;;;;;;;;;;;;7.18;100.00;95098.97;10441099;28;19920;-76
2021/11/20 21:00:30;;;;;;;;;;;;;;;7.12;100.00;95099.97;10441227;28;20039;-74
2021/11/20 21:05:30;;;;;;;;;;;;;;;7.17;100.00;95102.69;10425300;28;19925;-76
2021/11/20 21:10:31;;;;;;;;;;;;;;;7.11;100.00;95103.69;10425785;28;20452;-77
2021/11/20 21:15:32;;;;;;;;;;;;;;;7.09;100.00;95114.63;10423776;28;19913;-75
2021/11/20 21:25:54;;;;;;;;;;;;;;;6.91;100.00;95120.97;10441551;28;20042;-74
2021/11/20 21:30:55;;;;;;;;;;;;;;;6.99;100.00;95114.41;10440285;28;19917;-73
2021/11/20 21:35:55;;;;;;;;;;;;;;;6.94;100.00;95115.16;10437575;28;19970;-74
2021/11/20 21:40:55;;;;;;;;;;;;;;;6.98;100.00;95104.81;10384849;28;19913;-72
2021/11/20 21:45:55;;;;;;;;;;;;;;;6.88;100.00;95097.41;10406830;28;20391;-75
2021/11/20 21:50:56;;;;;;;;;;;;;;;6.98;100.00;95088.78;10409208;28;19920;-74
2021/11/20 21:55:56;;;;;;;;;;;;;;;6.96;100.00;95102.38;10407270;28;19917;-75
2021/11/20 22:00:56;;;;;;;;;;;;;;;6.99;100.00;95091.19;10406310;28;19921;-75
2021/11/20 22:05:58;;;;;;;;;;;;;;;6.87;100.00;95109.16;10391040;28;20028;-76
2021/11/20 22:10:58;;;;;;;;;;;;;;;6.77;100.00;95096.41;10447977;28;20302;-75
2021/11/20 22:15:59;;;;;;;;;;;;;;;6.81;100.00;95096.78;10447410;28;19921;-74
2021/11/20 22:20:59;;;;;;;;;;;;;;;6.63;100.00;95093.25;10447669;28;19913;-75
2021/11/20 22:26:00;;;;;;;;;;;;;;;6.55;100.00;95090.94;10447516;28;19967;-75
2021/11/20 22:31:00;;;;;;;;;;;;;;;6.42;100.00;95088.56;10430459;28;19916;-74
2021/11/20 22:36:01;;;;;;;;;;;;;;;6.21;100.00;95087.34;10429012;28;19924;-78
2021/11/20 22:41:01;;;;;;;;;;;;;;;6.01;100.00;95095.75;10405723;28;19949;-79
2021/11/20 22:46:02;;;;;;;;;;;;;;;5.82;100.00;95088.69;10405640;28;20444;-75
2021/11/20 22:51:02;;;;;;;;;;;;;;;5.58;100.00;95087.06;10388212;28;19917;-79
2021/11/20 22:56:03;;;;;;;;;;;;;;;5.45;100.00;95083.59;10387484;28;20462;-77
2021/11/20 23:01:03;;;;;;;;;;;;;;;5.23;100.00;95079.88;10387663;28;20357;-73
2021/11/20 23:06:03;;;;;;;;;;;;;;;5.07;100.00;95089.38;10407186;28;19921;-75
2021/11/20 23:11:05;;;;;;;;;;;;;;;4.88;100.00;95089.44;10445826;28;19913;-77
2021/11/20 23:16:05;;;;;;;;;;;;;;;4.88;100.00;95083.31;10445233;28;20455;-77
2021/11/20 23:21:08;;;;;;;;;;;;;;;4.84;100.00;95082.94;10427483;28;19928;-82
2021/11/20 23:26:09;;;;;;;;;;;;;;;4.79;100.00;95080.97;10444831;28;19916;-81
2021/11/20 23:31:10;;;;;;;;;;;;;;;4.77;100.00;95074.25;10445093;28;19912;-73
2021/11/20 23:36:10;;;;;;;;;;;;;;;4.76;100.00;95070.00;10441845;28;19913;-82
2021/11/20 23:41:11;;;;;;;;;;;;;;;4.67;100.00;95072.16;10387729;28;19924;-80
2021/11/20 23:46:11;;;;;;;;;;;;;;;4.72;100.00;95058.19;10404720;28;19925;-75
2021/11/20 23:51:12;;;;;;;;;;;;;;;4.75;100.00;95052.38;10408837;28;20015;-73
2021/11/20 23:56:12;;;;;;;;;;;;;;;4.67;100.00;95063.38;10405541;28;19920;-74
